aviador You're here:

KTOI Decoded Metar

TROY in AL, USA
Report Time2017-09-25 19:53:00
UTC Time2017-09-25 20:18:48
Flight Rules vfr VFR
Wind110° at 06 kt
W.Decomp.*RWY 14: 5.2 kt HW 2.9 kt LCW
RWY 07: 4.5 kt HW 3.9 kt RCW
W.Rank110° ranks 21
Current wind is above 110° avg. (5.8)
Visibility9999 m
Phenomena:N/A
Clouds:Overcast 065 Hf
Expected CloudBase > 3,600 ft AGL from Temp-Dew spread
Ceiling6,500 ft
Temp29°C (ISA +15)
Dew Point20°C (58% RH)
Heat Index30.7°C
QNH1013 hPa
Density Alt2,392 ft
Elevation387 ft
Report Wrong Elevation
Raw Report
KTOI 251953Z AUTO 11006KT 10SM OVC065 29/20 A2992 RMK AO2 SLP126
T02890200=

Extra information for KTOI:More info

Metar Taf Metar & Taf Last 4 Metars F.Rules Stats Wind Profile Meteogram Temp Stats Airport Information Weather charts Add Link Nearby VenuesMetar ALERT Operation Metar Decoded Social comments

AIRNAV info for KTOI